createdAt,value
2018-12-13T00:05:37.886Z,3.60
2018-12-13T00:11:12.935Z,3.60
2018-12-13T00:17:29.422Z,3.60
2018-12-13T00:20:06.579Z,3.50
2018-12-13T00:22:38.937Z,3.60
2018-12-13T00:25:08.942Z,3.60
2018-12-13T00:28:13.945Z,3.50
2018-12-13T00:30:48.209Z,3.50
2018-12-13T00:33:33.518Z,3.50
2018-12-13T00:36:29.317Z,3.50
2018-12-13T00:39:07.672Z,3.50
2018-12-13T00:41:38.142Z,3.50
2018-12-13T00:50:27.615Z,3.50
2018-12-13T00:52:59.853Z,3.50
2018-12-13T01:05:03.993Z,3.40
2018-12-13T01:11:31.680Z,3.40
2018-12-13T01:14:08.862Z,3.40
2018-12-13T01:16:41.129Z,3.40
2018-12-13T01:19:11.375Z,3.40
2018-12-13T01:24:43.817Z,3.40
2018-12-13T01:30:41.975Z,3.40
2018-12-13T01:33:11.101Z,3.40
2018-12-13T01:38:13.633Z,3.30
2018-12-13T01:50:31.197Z,3.30
2018-12-13T01:52:59.697Z,3.30
2018-12-13T01:55:39.614Z,3.30
2018-12-13T01:58:08.905Z,3.30
2018-12-13T02:00:37.448Z,3.30
2018-12-13T02:03:32.705Z,3.40
2018-12-13T02:06:32.349Z,3.40
2018-12-13T02:09:00.872Z,3.40
2018-12-13T02:11:30.004Z,3.40
2018-12-13T02:13:59.118Z,3.40
2018-12-13T02:16:28.252Z,3.40
2018-12-13T02:18:56.817Z,3.40
2018-12-13T02:21:42.224Z,3.40
2018-12-13T02:24:10.764Z,3.40
2018-12-13T02:26:42.980Z,3.40
2018-12-13T02:29:11.524Z,3.40
2018-12-13T02:31:40.125Z,3.40
2018-12-13T02:34:12.296Z,3.40
2018-12-13T02:36:40.868Z,3.40
2018-12-13T02:39:09.569Z,3.40
2018-12-13T02:41:38.240Z,3.40
2018-12-13T02:44:06.763Z,3.40
2018-12-13T02:46:35.298Z,3.40
2018-12-13T02:49:12.454Z,3.40
2018-12-13T02:51:41.796Z,3.40
2018-12-13T02:54:10.296Z,3.40
2018-12-13T02:56:38.799Z,3.40
2018-12-13T02:59:07.318Z,3.40
2018-12-13T03:01:35.879Z,3.40
2018-12-13T03:04:04.644Z,3.40
2018-12-13T03:06:33.217Z,3.40
2018-12-13T03:09:02.329Z,3.40
2018-12-13T03:14:05.001Z,3.40
2018-12-13T03:16:33.551Z,3.40
2018-12-13T03:19:02.151Z,3.40
2018-12-13T03:21:30.671Z,3.40
2018-12-13T03:24:02.472Z,3.40
2018-12-13T03:26:31.467Z,3.40
2018-12-13T03:29:00.799Z,3.40
2018-12-13T03:31:29.323Z,3.40
2018-12-13T03:33:57.951Z,3.40
2018-12-13T03:36:26.487Z,3.40
2018-12-13T03:38:54.992Z,3.40
2018-12-13T03:41:24.171Z,3.40
2018-12-13T03:43:52.659Z,3.40
2018-12-13T03:46:21.318Z,3.40
2018-12-13T03:48:49.925Z,3.40
2018-12-13T03:51:18.523Z,3.40
2018-12-13T03:53:59.292Z,3.40
2018-12-13T03:56:27.815Z,3.40
2018-12-13T03:58:56.350Z,3.40
2018-12-13T04:01:25.395Z,3.50
2018-12-13T04:03:53.923Z,3.40
2018-12-13T04:06:22.582Z,3.50
2018-12-13T04:08:51.120Z,3.40
2018-12-13T04:11:19.666Z,3.50
2018-12-13T04:13:48.220Z,3.50
2018-12-13T04:16:21.775Z,3.50
2018-12-13T04:18:50.336Z,3.50
2018-12-13T04:21:19.299Z,3.50
2018-12-13T04:23:47.847Z,3.40
2018-12-13T04:26:16.378Z,3.40
2018-12-13T04:28:44.922Z,3.40
2018-12-13T04:31:13.457Z,3.40
2018-12-13T04:33:42.034Z,3.40
2018-12-13T04:36:13.364Z,3.40
2018-12-13T04:38:42.834Z,3.40
2018-12-13T04:41:14.917Z,3.40
2018-12-13T04:43:43.450Z,3.40
2018-12-13T04:46:11.990Z,3.40
2018-12-13T04:48:40.522Z,3.40
2018-12-13T04:51:09.257Z,3.40
2018-12-13T04:53:39.299Z,3.30
2018-12-13T04:56:38.381Z,3.30
2018-12-13T04:59:06.932Z,3.30
2018-12-13T05:01:35.489Z,3.20
2018-12-13T05:04:04.065Z,3.20
2018-12-13T05:06:32.625Z,3.20
2018-12-13T05:09:01.145Z,3.20
2018-12-13T05:11:29.681Z,3.20
2018-12-13T05:13:58.193Z,3.20
2018-12-13T05:16:30.397Z,3.20
2018-12-13T05:18:58.941Z,3.20
2018-12-13T05:21:27.501Z,3.20
2018-12-13T05:23:56.100Z,3.10
2018-12-13T05:26:26.061Z,3.10
2018-12-13T05:28:54.612Z,3.10
2018-12-13T05:31:23.494Z,3.00
2018-12-13T05:33:52.003Z,3.00
2018-12-13T05:36:20.492Z,3.00
2018-12-13T05:38:53.816Z,3.00
2018-12-13T05:41:22.309Z,3.00
2018-12-13T05:44:02.008Z,3.00
2018-12-13T05:46:30.521Z,3.00
2018-12-13T05:48:59.012Z,3.00
2018-12-13T05:51:27.560Z,3.00
2018-12-13T05:53:56.049Z,3.00
2018-12-13T05:56:24.560Z,3.00
2018-12-13T05:58:53.060Z,3.00
2018-12-13T06:01:21.581Z,3.00
2018-12-13T06:04:04.093Z,2.90
2018-12-13T06:06:32.793Z,2.90
2018-12-13T06:09:01.327Z,2.90
2018-12-13T06:11:30.627Z,2.90
2018-12-13T06:14:03.162Z,2.90
2018-12-13T06:16:35.553Z,2.90
2018-12-13T06:19:04.116Z,2.90
2018-12-13T06:21:36.873Z,2.90
2018-12-13T06:24:03.824Z,2.90
2018-12-13T06:26:32.360Z,2.90
2018-12-13T06:29:00.916Z,2.80
2018-12-13T06:31:29.440Z,2.80
2018-12-13T06:33:57.974Z,2.80
2018-12-13T06:36:26.528Z,2.80
2018-12-13T06:38:55.791Z,2.80
2018-12-13T06:41:26.099Z,2.80
2018-12-13T06:44:00.105Z,2.80
2018-12-13T06:46:31.216Z,2.80
2018-12-13T06:52:21.600Z,2.80
2018-12-13T06:55:29.504Z,2.70
2018-12-13T06:57:58.076Z,2.80
2018-12-13T07:00:27.658Z,2.80
2018-12-13T07:02:56.196Z,2.80
2018-12-13T07:05:24.714Z,2.80
2018-12-13T07:07:53.224Z,2.80
2018-12-13T07:10:50.949Z,2.80
2018-12-13T07:13:21.364Z,2.80
2018-12-13T07:19:25.222Z,2.80
2018-12-13T07:22:29.061Z,2.80
2018-12-13T07:25:05.611Z,2.80
2018-12-13T07:33:49.227Z,2.60
2018-12-13T07:36:20.756Z,2.50
2018-12-13T07:38:53.019Z,2.50
2018-12-13T07:44:26.307Z,2.50
2018-12-13T07:49:30.680Z,2.40
2018-12-13T07:52:03.101Z,2.40
2018-12-13T08:01:01.227Z,2.50
2018-12-13T08:03:57.027Z,2.50
2018-12-13T08:06:29.511Z,2.50
2018-12-13T08:12:27.620Z,2.50
2018-12-13T08:14:58.091Z,2.50
2018-12-13T08:17:32.272Z,2.50
2018-12-13T08:20:08.331Z,2.60
2018-12-13T08:22:42.068Z,2.60
2018-12-13T08:25:19.058Z,2.60
2018-12-13T08:27:55.044Z,2.60
2018-12-13T08:30:28.443Z,2.60
2018-12-13T08:33:08.275Z,2.60
2018-12-13T08:39:25.859Z,2.50
2018-12-13T08:48:56.571Z,2.50
2018-12-13T08:52:08.780Z,2.50
2018-12-13T08:58:35.548Z,2.50
2018-12-13T09:01:23.075Z,2.60
2018-12-13T09:04:29.131Z,2.60
2018-12-13T09:07:22.208Z,2.70
2018-12-13T09:17:32.011Z,2.80
2018-12-13T09:20:04.583Z,2.90
2018-12-13T09:22:33.908Z,3.00
2018-12-13T09:25:15.290Z,3.00
2018-12-13T09:28:08.035Z,3.00
2018-12-13T09:30:42.087Z,3.10
2018-12-13T09:33:10.680Z,3.10
2018-12-13T09:35:41.036Z,3.10
2018-12-13T09:38:09.692Z,3.20
2018-12-13T09:43:21.472Z,3.20
2018-12-13T09:45:50.307Z,3.20
2018-12-13T09:48:22.823Z,3.20
2018-12-13T09:50:56.171Z,3.20
2018-12-13T09:53:54.987Z,3.20
2018-12-13T09:56:31.891Z,3.30
2018-12-13T09:59:05.538Z,3.30
2018-12-13T10:01:34.434Z,3.30
2018-12-13T10:04:03.258Z,3.30
2018-12-13T10:06:31.806Z,3.40
2018-12-13T10:26:30.846Z,3.40
2018-12-13T10:29:42.635Z,3.40
2018-12-13T10:33:01.949Z,3.50
2018-12-13T10:39:00.952Z,3.50
2018-12-13T10:42:04.173Z,3.50
2018-12-13T10:44:42.529Z,3.50
2018-12-13T10:47:21.376Z,3.60
2018-12-13T10:50:16.786Z,3.60
2018-12-13T10:52:53.637Z,3.70
2018-12-13T10:55:49.224Z,3.70
2018-12-13T11:01:54.451Z,3.70
2018-12-13T11:07:26.384Z,3.80
2018-12-13T11:19:20.440Z,3.70
2018-12-13T11:21:52.576Z,3.70
2018-12-13T11:33:25.889Z,3.70
2018-12-13T11:41:39.940Z,3.70
2018-12-13T11:44:20.920Z,3.70
2018-12-13T11:47:11.219Z,3.70
2018-12-13T11:49:42.859Z,3.70
2018-12-13T11:59:04.287Z,3.70
2018-12-13T12:02:23.986Z,3.70
2018-12-13T12:08:40.035Z,3.60
2018-12-13T12:11:08.523Z,3.60
2018-12-13T12:13:41.783Z,3.70
2018-12-13T12:16:34.444Z,3.60
2018-12-13T12:19:35.724Z,3.60
2018-12-13T12:22:04.379Z,3.60
2018-12-13T12:24:33.527Z,3.60
2018-12-13T12:27:02.020Z,3.60
2018-12-13T12:30:08.287Z,3.60
2018-12-13T12:32:37.599Z,3.70
2018-12-13T12:35:13.668Z,3.70
2018-12-13T12:41:13.782Z,3.60
2018-12-13T12:43:45.624Z,3.60
2018-12-13T12:49:49.732Z,3.60
2018-12-13T12:55:15.727Z,3.50
2018-12-13T13:01:16.183Z,3.50
2018-12-13T13:03:45.559Z,3.50
2018-12-13T13:06:21.283Z,3.50
2018-12-13T13:08:49.879Z,3.50
2018-12-13T13:11:19.659Z,3.50
2018-12-13T13:13:48.543Z,3.40
2018-12-13T13:26:32.936Z,3.40
2018-12-13T13:29:01.981Z,3.40
2018-12-13T13:35:05.293Z,3.30
2018-12-13T13:37:33.815Z,3.30
2018-12-13T13:40:02.363Z,3.30
2018-12-13T13:42:30.907Z,3.30
2018-12-13T13:47:46.611Z,3.30
2018-12-13T13:53:46.063Z,3.20
2018-12-13T13:56:15.955Z,3.20
2018-12-13T13:59:11.258Z,3.20
2018-12-13T14:01:43.339Z,3.20
2018-12-13T14:04:53.199Z,3.20
2018-12-13T14:07:21.975Z,3.20
2018-12-13T14:09:50.613Z,3.10
2018-12-13T14:12:19.799Z,3.10
2018-12-13T14:14:48.356Z,3.10
2018-12-13T14:17:21.527Z,3.10
2018-12-13T14:20:15.903Z,3.10
2018-12-13T14:22:47.999Z,3.10
2018-12-13T14:25:16.519Z,3.10
2018-12-13T14:27:45.134Z,3.10
2018-12-13T14:30:17.171Z,3.10
2018-12-13T14:32:57.876Z,3.00
2018-12-13T14:35:34.995Z,3.00
2018-12-13T14:38:03.824Z,3.00
2018-12-13T14:40:34.183Z,3.00
2018-12-13T14:43:03.682Z,3.00
2018-12-13T14:45:32.319Z,3.00
2018-12-13T14:48:00.851Z,3.00
2018-12-13T14:50:34.087Z,3.00
2018-12-13T14:53:23.590Z,3.00
2018-12-13T14:55:52.110Z,3.00
2018-12-13T14:58:58.444Z,3.00
2018-12-13T15:01:27.546Z,3.00
2018-12-13T15:06:53.667Z,2.90
2018-12-13T15:12:54.214Z,2.90
2018-12-13T15:15:22.726Z,2.90
2018-12-13T15:17:58.362Z,2.90
2018-12-13T15:20:32.502Z,2.90
2018-12-13T15:23:04.690Z,2.90
2018-12-13T15:25:33.254Z,2.90
2018-12-13T15:28:02.102Z,2.90
2018-12-13T15:30:39.598Z,2.90
2018-12-13T15:33:12.762Z,2.90
2018-12-13T15:38:51.417Z,2.90
2018-12-13T15:41:33.014Z,2.80
2018-12-13T15:44:01.869Z,2.80
2018-12-13T15:47:17.778Z,2.80
2018-12-13T15:58:35.727Z,2.70
2018-12-13T16:01:21.526Z,2.70
2018-12-13T16:04:10.978Z,2.70
2018-12-13T16:07:16.994Z,2.70
2018-12-13T16:09:53.802Z,2.70
2018-12-13T16:12:22.470Z,2.70
2018-12-13T16:15:04.153Z,2.70
2018-12-13T16:17:32.750Z,2.80
2018-12-13T16:20:16.341Z,2.80
2018-12-13T16:22:48.686Z,2.80
2018-12-13T16:25:45.861Z,2.80
2018-12-13T16:31:42.050Z,2.80
2018-12-13T16:34:13.114Z,2.70
2018-12-13T16:36:52.658Z,2.70
2018-12-13T16:39:45.611Z,2.70
2018-12-13T16:42:14.790Z,2.70
2018-12-13T16:45:10.581Z,2.70
2018-12-13T16:48:18.739Z,2.70
2018-12-13T16:50:55.817Z,2.70
2018-12-13T16:56:56.005Z,2.60
2018-12-13T17:03:19.498Z,2.60
2018-12-13T17:11:48.717Z,2.60
2018-12-13T17:47:20.145Z,2.50
2018-12-13T17:49:48.857Z,2.50
2018-12-13T17:52:30.769Z,2.50
2018-12-13T17:54:59.340Z,2.50
2018-12-13T18:01:41.357Z,2.50
2018-12-13T18:04:24.275Z,2.50
2018-12-13T18:06:52.881Z,2.50
2018-12-13T18:09:22.116Z,2.50
2018-12-13T18:43:43.809Z,2.50
2018-12-13T18:53:22.634Z,2.50
2018-12-13T18:59:01.310Z,2.50
2018-12-13T19:05:13.805Z,2.50
2018-12-13T19:11:14.170Z,2.50
2018-12-13T19:21:23.185Z,2.50
2018-12-13T19:24:25.985Z,2.50
2018-12-13T19:30:01.809Z,2.50
2018-12-13T19:39:31.601Z,2.50
2018-12-13T19:45:52.237Z,2.40
2018-12-13T19:48:25.923Z,2.40
2018-12-13T20:05:07.965Z,2.40
2018-12-13T20:14:29.444Z,2.40
2018-12-13T20:16:57.960Z,2.40
2018-12-13T20:19:34.300Z,2.40
2018-12-13T20:26:21.488Z,2.40
2018-12-13T20:28:50.070Z,2.40
2018-12-13T20:31:26.866Z,2.40
2018-12-13T20:34:32.444Z,2.40
2018-12-13T20:37:30.436Z,2.40
2018-12-13T20:39:59.002Z,2.40
2018-12-13T20:42:45.850Z,2.40
2018-12-13T20:45:18.123Z,2.40
2018-12-13T20:58:15.852Z,2.40
2018-12-13T21:03:39.995Z,2.40
2018-12-13T21:06:08.667Z,2.40
2018-12-13T21:08:44.632Z,2.40
2018-12-13T21:11:34.515Z,2.40
2018-12-13T21:14:03.747Z,2.40
2018-12-13T21:20:02.067Z,2.40
2018-12-13T21:28:39.506Z,2.40
2018-12-13T21:31:21.443Z,2.40
2018-12-13T21:37:20.361Z,2.40
2018-12-13T21:39:48.907Z,2.40
2018-12-13T21:42:18.195Z,2.40
2018-12-13T21:44:46.847Z,2.40
2018-12-13T21:50:49.819Z,2.40
2018-12-13T21:53:23.699Z,2.40
2018-12-13T21:55:52.396Z,2.40
2018-12-13T21:58:22.968Z,2.40
2018-12-13T22:00:52.535Z,2.40
2018-12-13T22:03:21.798Z,2.40
2018-12-13T22:05:50.342Z,2.40
2018-12-13T22:08:29.011Z,2.40
2018-12-13T22:10:58.467Z,2.40
2018-12-13T22:14:14.074Z,2.40
2018-12-13T22:16:48.658Z,2.40
2018-12-13T22:19:19.291Z,2.40
2018-12-13T22:24:37.578Z,2.40
2018-12-13T22:27:15.970Z,2.40
2018-12-13T22:29:49.258Z,2.40
2018-12-13T22:32:39.098Z,2.40
2018-12-13T22:37:59.482Z,2.40
2018-12-13T22:40:28.206Z,2.30
2018-12-13T22:42:57.026Z,2.30
2018-12-13T22:45:32.814Z,2.30
2018-12-13T22:51:31.974Z,2.30
2018-12-13T22:54:05.658Z,2.30
2018-12-13T22:56:34.230Z,2.30
2018-12-13T22:59:07.998Z,2.30
2018-12-13T23:01:36.937Z,2.30
2018-12-13T23:04:05.543Z,2.30
2018-12-13T23:06:34.658Z,2.30
2018-12-13T23:09:09.546Z,2.30
2018-12-13T23:11:38.070Z,2.30
2018-12-13T23:14:06.622Z,2.30
2018-12-13T23:16:36.578Z,2.30
2018-12-13T23:19:05.089Z,2.30
2018-12-13T23:21:37.094Z,2.30
2018-12-13T23:24:08.937Z,2.40
2018-12-13T23:26:37.587Z,2.30
2018-12-13T23:29:06.213Z,2.30
2018-12-13T23:31:34.725Z,2.30
2018-12-13T23:34:11.701Z,2.40
2018-12-13T23:36:40.217Z,2.40
2018-12-13T23:39:17.228Z,2.30
2018-12-13T23:41:52.486Z,2.40
2018-12-13T23:44:22.885Z,2.40
2018-12-13T23:46:51.449Z,2.30
2018-12-13T23:49:23.277Z,2.30
2018-12-13T23:51:51.777Z,2.40
2018-12-13T23:54:20.285Z,2.40
2018-12-13T23:56:57.400Z,2.40
2018-12-13T23:59:31.664Z,2.30
